createdAt,value
2023-04-12T00:00:07.044Z,7.90
2023-04-12T00:02:35.710Z,7.90
2023-04-12T00:05:04.224Z,7.90
2023-04-12T00:07:34.058Z,7.90
2023-04-12T00:10:03.234Z,7.80
2023-04-12T00:12:31.246Z,7.80
2023-04-12T00:14:59.276Z,7.80
2023-04-12T00:17:27.546Z,7.80
2023-04-12T00:19:55.910Z,7.70
2023-04-12T00:22:24.198Z,7.70
2023-04-12T00:24:53.895Z,7.70
2023-04-12T00:27:22.116Z,7.70
2023-04-12T00:29:50.088Z,7.60
2023-04-12T00:32:17.997Z,7.60
2023-04-12T00:34:46.607Z,7.60
2023-04-12T00:37:14.529Z,7.60
2023-04-12T00:39:42.461Z,7.60
2023-04-12T00:42:11.757Z,7.60
2023-04-12T00:44:40.293Z,7.50
2023-04-12T00:47:08.847Z,7.50
2023-04-12T00:49:36.962Z,7.50
2023-04-12T00:52:08.675Z,7.50
2023-04-12T00:54:36.983Z,7.50
2023-04-12T00:57:05.656Z,7.50
2023-04-12T00:59:34.875Z,7.40
2023-04-12T01:02:03.460Z,7.40
2023-04-12T01:04:32.115Z,7.40
2023-04-12T01:07:15.274Z,7.40
2023-04-12T01:09:58.696Z,7.40
2023-04-12T01:12:37.273Z,7.40
2023-04-12T01:15:10.331Z,7.40
2023-04-12T01:17:45.451Z,7.40
2023-04-12T01:20:18.909Z,7.40
2023-04-12T01:23:06.178Z,7.30
2023-04-12T01:25:41.551Z,7.30
2023-04-12T01:28:15.857Z,7.30
2023-04-12T01:30:44.264Z,7.40
2023-04-12T01:33:15.118Z,7.30
2023-04-12T01:35:43.679Z,7.30
2023-04-12T01:38:12.286Z,7.30
2023-04-12T01:40:42.571Z,7.30
2023-04-12T01:43:14.840Z,7.30
2023-04-12T01:45:42.834Z,7.30
2023-04-12T01:48:13.012Z,7.30
2023-04-12T01:50:49.968Z,7.20
2023-04-12T01:53:22.345Z,7.20
2023-04-12T01:55:51.495Z,7.20
2023-04-12T01:58:23.409Z,7.20
2023-04-12T02:00:53.053Z,7.20
2023-04-12T02:03:22.215Z,7.20
2023-04-12T02:05:52.729Z,7.20
2023-04-12T02:08:20.726Z,7.20
2023-04-12T02:10:49.143Z,7.10
2023-04-12T02:13:18.357Z,7.10
2023-04-12T02:15:47.958Z,7.10
2023-04-12T02:18:16.840Z,7.10
2023-04-12T02:20:45.025Z,7.10
2023-04-12T02:23:13.593Z,7.10
2023-04-12T02:25:41.596Z,7.10
2023-04-12T02:28:10.196Z,7.10
2023-04-12T02:30:38.376Z,7.10
2023-04-12T02:33:09.588Z,7.10
2023-04-12T02:35:37.961Z,7.10
2023-04-12T02:38:08.756Z,7.10
2023-04-12T02:40:39.661Z,7.00
2023-04-12T02:43:07.895Z,7.00
2023-04-12T02:45:36.343Z,7.10
2023-04-12T02:48:05.481Z,7.10
2023-04-12T02:50:34.861Z,7.00
2023-04-12T02:53:02.816Z,7.00
2023-04-12T02:55:31.534Z,7.00
2023-04-12T02:57:59.584Z,7.00
2023-04-12T03:00:27.781Z,7.00
2023-04-12T03:02:55.770Z,7.00
2023-04-12T03:05:24.160Z,7.00
2023-04-12T03:07:53.691Z,7.00
2023-04-12T03:10:21.733Z,7.00
2023-04-12T03:12:49.663Z,7.00
2023-04-12T03:15:17.975Z,7.10
2023-04-12T03:17:46.168Z,7.00
2023-04-12T03:20:14.530Z,7.00
2023-04-12T03:22:42.431Z,7.00
2023-04-12T03:25:12.637Z,7.00
2023-04-12T03:27:40.950Z,7.00
2023-04-12T03:30:10.419Z,7.00
2023-04-12T03:32:38.461Z,7.00
2023-04-12T03:35:07.618Z,7.10
2023-04-12T03:37:36.000Z,7.00
2023-04-12T03:40:04.687Z,7.00
2023-04-12T03:42:34.356Z,7.00
2023-04-12T03:45:02.292Z,7.00
2023-04-12T03:47:30.553Z,7.00
2023-04-12T03:50:11.385Z,7.00
2023-04-12T03:52:40.327Z,7.00
2023-04-12T03:55:08.948Z,7.00
2023-04-12T03:57:38.165Z,7.00
2023-04-12T04:00:08.442Z,7.00
2023-04-12T04:02:36.834Z,7.00
2023-04-12T04:05:05.506Z,7.00
2023-04-12T04:07:34.814Z,7.00
2023-04-12T04:10:03.232Z,7.00
2023-04-12T04:12:31.766Z,7.00
2023-04-12T04:15:23.063Z,7.00
2023-04-12T04:26:13.899Z,7.00
2023-04-12T04:28:50.343Z,6.90
2023-04-12T04:31:19.689Z,7.00
2023-04-12T04:33:47.727Z,6.90
2023-04-12T04:36:16.663Z,6.90
2023-04-12T04:38:44.612Z,6.90
2023-04-12T04:41:12.477Z,6.90
2023-04-12T04:43:48.801Z,6.90
2023-04-12T04:46:46.662Z,6.90
2023-04-12T04:49:14.891Z,6.90
2023-04-12T04:51:43.073Z,6.90
2023-04-12T04:54:11.190Z,6.90
2023-04-12T04:56:39.165Z,6.90
2023-04-12T04:59:07.331Z,6.90
2023-04-12T05:01:36.765Z,6.90
2023-04-12T05:04:05.353Z,6.90
2023-04-12T05:06:33.570Z,6.90
2023-04-12T05:09:01.727Z,6.90
2023-04-12T05:11:29.679Z,7.00
2023-04-12T05:13:57.584Z,6.90
2023-04-12T05:16:25.512Z,7.00
2023-04-12T05:18:54.935Z,7.00
2023-04-12T05:21:24.411Z,7.00
2023-04-12T05:23:52.456Z,7.00
2023-04-12T05:26:21.634Z,7.00
2023-04-12T05:28:49.779Z,7.00
2023-04-12T05:31:18.068Z,7.00
2023-04-12T05:33:46.610Z,7.00
2023-04-12T05:36:15.897Z,6.90
2023-04-12T05:38:44.522Z,6.90
2023-04-12T05:41:12.907Z,6.90
2023-04-12T05:43:40.919Z,6.90
2023-04-12T05:46:09.016Z,6.90
2023-04-12T05:48:37.107Z,6.90
2023-04-12T05:51:06.000Z,6.90
2023-04-12T05:53:35.281Z,6.90
2023-04-12T05:56:03.370Z,6.90
2023-04-12T05:58:31.267Z,6.90
2023-04-12T06:00:59.248Z,6.90
2023-04-12T06:03:30.317Z,6.90
2023-04-12T06:05:58.517Z,6.80
2023-04-12T06:08:29.397Z,6.90
2023-04-12T06:10:58.663Z,6.90
2023-04-12T06:13:26.504Z,6.90
2023-04-12T06:15:54.808Z,6.90
2023-04-12T06:18:22.732Z,6.90
2023-04-12T06:20:50.772Z,6.90
2023-04-12T06:23:19.203Z,6.90
2023-04-12T06:25:48.109Z,6.90
2023-04-12T06:28:17.523Z,6.90
2023-04-12T06:30:45.460Z,6.90
2023-04-12T06:33:13.873Z,6.90
2023-04-12T06:35:41.863Z,6.90
2023-04-12T06:38:09.839Z,6.90
2023-04-12T06:40:37.845Z,7.00
2023-04-12T06:43:05.809Z,7.00
2023-04-12T06:45:35.268Z,7.00
2023-04-12T06:48:03.280Z,7.00
2023-04-12T06:50:31.136Z,7.10
2023-04-12T06:52:59.019Z,7.10
2023-04-12T06:55:29.126Z,7.10
2023-04-12T06:57:57.143Z,7.10
2023-04-12T07:00:25.714Z,7.10
2023-04-12T07:02:55.283Z,7.10
2023-04-12T07:05:23.512Z,7.10
2023-04-12T07:07:51.479Z,7.10
2023-04-12T07:10:19.522Z,7.10
2023-04-12T07:12:47.758Z,7.20
2023-04-12T07:15:15.618Z,7.20
2023-04-12T07:17:43.843Z,7.20
2023-04-12T07:20:13.699Z,7.20
2023-04-12T07:22:41.530Z,7.20
2023-04-12T07:25:10.912Z,7.30
2023-04-12T07:27:38.844Z,7.30
2023-04-12T07:30:07.847Z,7.30
2023-04-12T07:32:35.807Z,7.30
2023-04-12T07:35:04.040Z,7.30
2023-04-12T07:37:33.274Z,7.40
2023-04-12T07:40:01.861Z,7.30
2023-04-12T07:42:29.801Z,7.40
2023-04-12T07:44:58.110Z,7.40
2023-04-12T07:47:26.282Z,7.40
2023-04-12T07:49:54.621Z,7.40
2023-04-12T07:52:22.661Z,7.50
2023-04-12T07:54:51.957Z,7.50
2023-04-12T07:57:19.886Z,7.50
2023-04-12T07:59:47.981Z,7.50
2023-04-12T08:02:24.773Z,7.60
2023-04-12T08:04:52.891Z,7.60
2023-04-12T08:07:22.091Z,7.60
2023-04-12T08:09:51.879Z,7.60
2023-04-12T08:12:21.222Z,7.60
2023-04-12T08:14:49.181Z,7.60
2023-04-12T08:17:17.031Z,7.70
2023-04-12T08:19:44.899Z,7.70
2023-04-12T08:22:13.728Z,7.70
2023-04-12T08:24:41.719Z,7.70
2023-04-12T08:27:13.755Z,7.80
2023-04-12T08:29:41.618Z,7.80
2023-04-12T08:32:10.072Z,7.80
2023-04-12T08:34:38.747Z,7.80
2023-04-12T08:37:06.944Z,7.90
2023-04-12T08:39:35.089Z,7.90
2023-04-12T08:42:05.064Z,8.00
2023-04-12T08:44:38.935Z,8.00
2023-04-12T08:47:08.675Z,8.00
2023-04-12T08:49:36.619Z,8.10
2023-04-12T08:52:06.613Z,8.10
2023-04-12T08:54:35.008Z,8.20
2023-04-12T08:57:04.929Z,8.20
2023-04-12T08:59:33.879Z,8.20
2023-04-12T09:02:03.416Z,8.30
2023-04-12T09:04:31.799Z,8.30
2023-04-12T09:06:59.805Z,8.40
2023-04-12T09:09:49.125Z,8.40
2023-04-12T09:12:19.995Z,8.40
2023-04-12T09:14:47.857Z,8.50
2023-04-12T09:17:27.099Z,8.50
2023-04-12T09:19:56.128Z,8.60
2023-04-12T09:22:35.344Z,8.60
2023-04-12T09:25:03.444Z,8.60
2023-04-12T09:27:31.356Z,8.60
2023-04-12T09:30:08.821Z,8.60
2023-04-12T09:32:38.586Z,8.70
2023-04-12T09:35:07.622Z,8.70
2023-04-12T09:37:35.584Z,8.70
2023-04-12T09:40:05.374Z,8.80
2023-04-12T09:42:35.107Z,8.80
2023-04-12T09:45:20.203Z,8.80
2023-04-12T09:47:49.704Z,8.80
2023-04-12T09:50:23.057Z,8.80
2023-04-12T09:52:51.732Z,8.80
2023-04-12T09:55:21.444Z,8.80
2023-04-12T09:57:51.939Z,8.90
2023-04-12T10:00:22.344Z,8.80
2023-04-12T10:02:53.672Z,8.90
2023-04-12T10:05:25.591Z,8.90
2023-04-12T10:07:55.317Z,8.90
2023-04-12T10:10:24.303Z,8.90
2023-04-12T10:12:52.781Z,8.90
2023-04-12T10:15:22.031Z,8.90
2023-04-12T10:17:53.234Z,9.00
2023-04-12T10:20:26.336Z,8.90
2023-04-12T10:22:59.721Z,9.00
2023-04-12T10:25:30.678Z,9.00
2023-04-12T10:27:58.537Z,9.00
2023-04-12T10:30:28.353Z,9.00
2023-04-12T10:33:17.837Z,9.00
2023-04-12T10:35:54.516Z,9.00
2023-04-12T10:38:24.969Z,9.00
2023-04-12T10:41:09.088Z,9.00
2023-04-12T10:43:37.094Z,9.00
2023-04-12T10:46:06.788Z,9.00
2023-04-12T10:48:37.500Z,9.00
2023-04-12T10:51:23.097Z,9.00
2023-04-12T10:53:52.126Z,9.10
2023-04-12T10:56:39.648Z,9.00
2023-04-12T10:59:08.356Z,9.10
2023-04-12T11:01:38.796Z,9.00
2023-04-12T11:04:20.432Z,9.00
2023-04-12T11:06:52.958Z,9.10
2023-04-12T11:09:22.895Z,9.10
2023-04-12T11:11:51.067Z,9.00
2023-04-12T11:14:24.985Z,9.10
2023-04-12T11:17:24.748Z,9.00
2023-04-12T11:19:59.298Z,9.00
2023-04-12T11:22:29.772Z,9.00
2023-04-12T11:24:59.755Z,9.00
2023-04-12T11:27:28.789Z,9.00
2023-04-12T11:29:58.484Z,9.00
2023-04-12T11:32:28.552Z,9.00
2023-04-12T11:34:59.009Z,9.00
2023-04-12T11:37:27.768Z,9.00
2023-04-12T11:39:59.081Z,9.00
2023-04-12T11:42:29.361Z,9.00
2023-04-12T11:45:03.102Z,9.00
2023-04-12T11:47:33.521Z,9.00
2023-04-12T11:50:02.867Z,9.00
2023-04-12T11:52:32.423Z,9.00
2023-04-12T11:55:05.131Z,9.10
2023-04-12T11:57:33.851Z,9.00
2023-04-12T12:00:07.009Z,9.00
2023-04-12T12:02:41.219Z,9.00
2023-04-12T12:05:13.512Z,9.00
2023-04-12T12:07:41.912Z,9.00
2023-04-12T12:10:11.033Z,9.00
2023-04-12T12:12:39.308Z,9.00
2023-04-12T12:15:08.655Z,9.00
2023-04-12T12:17:38.676Z,9.00
2023-04-12T12:20:09.733Z,9.00
2023-04-12T12:22:38.998Z,9.00
2023-04-12T12:25:08.035Z,9.00
2023-04-12T12:27:37.888Z,9.00
2023-04-12T12:30:09.530Z,9.00
2023-04-12T12:32:39.983Z,9.00
2023-04-12T12:35:11.040Z,9.00
2023-04-12T12:37:50.399Z,9.00
2023-04-12T12:40:21.231Z,9.00
2023-04-12T12:42:50.690Z,9.10
2023-04-12T12:45:22.019Z,9.00
2023-04-12T12:47:52.529Z,9.00
2023-04-12T12:50:24.112Z,9.10
2023-04-12T12:52:55.243Z,9.10
2023-04-12T12:55:24.352Z,9.00
2023-04-12T12:58:05.964Z,9.00
2023-04-12T13:00:35.369Z,9.00
2023-04-12T13:03:03.699Z,9.00
2023-04-12T13:05:31.980Z,9.10
2023-04-12T13:08:01.453Z,9.10
2023-04-12T13:10:29.635Z,9.10
2023-04-12T13:12:58.670Z,9.10
2023-04-12T13:15:26.594Z,9.10
2023-04-12T13:17:54.810Z,9.10
2023-04-12T13:20:22.889Z,9.10
2023-04-12T13:22:52.349Z,9.10
2023-04-12T13:25:22.488Z,9.10
2023-04-12T13:27:51.503Z,9.10
2023-04-12T13:30:20.280Z,9.10
2023-04-12T13:32:48.411Z,9.10
2023-04-12T13:35:16.304Z,9.10
2023-04-12T13:37:44.297Z,9.10
2023-04-12T13:40:12.819Z,9.10
2023-04-12T13:42:42.115Z,9.10
2023-04-12T13:45:11.574Z,9.10
2023-04-12T13:47:39.969Z,9.10
2023-04-12T13:50:10.185Z,9.10
2023-04-12T13:52:38.214Z,9.10
2023-04-12T13:55:08.352Z,9.10
2023-04-12T13:57:36.594Z,9.10
2023-04-12T14:00:07.412Z,9.20
2023-04-12T14:02:35.426Z,9.20
2023-04-12T14:05:04.254Z,9.20
2023-04-12T14:07:32.370Z,9.20
2023-04-12T14:10:00.361Z,9.20
2023-04-12T14:12:28.323Z,9.20
2023-04-12T14:14:56.901Z,9.20
2023-04-12T14:17:32.068Z,9.20
2023-04-12T14:20:00.683Z,9.20
2023-04-12T14:22:32.093Z,9.20
2023-04-12T14:24:59.987Z,9.20
2023-04-12T14:27:31.041Z,9.20
2023-04-12T14:29:58.881Z,9.20
2023-04-12T14:32:28.463Z,9.20
2023-04-12T14:34:56.360Z,9.30
2023-04-12T14:37:24.521Z,9.30
2023-04-12T14:39:54.466Z,9.30
2023-04-12T14:42:22.341Z,9.30
2023-04-12T14:44:50.407Z,9.30
2023-04-12T14:47:18.760Z,9.30
2023-04-12T14:49:48.086Z,9.30
2023-04-12T14:52:16.581Z,9.30
2023-04-12T14:54:44.657Z,9.30
2023-04-12T14:57:12.776Z,9.30
2023-04-12T14:59:40.817Z,9.30
2023-04-12T15:02:08.878Z,9.30
2023-04-12T15:04:40.582Z,9.30
2023-04-12T15:07:10.528Z,9.30
2023-04-12T15:09:40.575Z,9.30
2023-04-12T15:12:09.382Z,9.30
2023-04-12T15:14:37.885Z,9.30
2023-04-12T15:17:08.396Z,9.30
2023-04-12T15:19:36.637Z,9.40
2023-04-12T15:22:04.650Z,9.30
2023-04-12T15:24:34.605Z,9.30
2023-04-12T15:27:54.745Z,9.40
2023-04-12T15:33:40.521Z,9.40
2023-04-12T15:36:18.274Z,9.40
2023-04-12T15:39:11.579Z,9.40
2023-04-12T15:44:34.321Z,9.40
2023-04-12T15:47:38.795Z,9.40
2023-04-12T15:50:01.539Z,9.40
2023-04-12T15:52:32.207Z,9.40
2023-04-12T15:55:00.485Z,9.40
2023-04-12T15:57:30.205Z,9.40
2023-04-12T15:59:59.813Z,9.40
2023-04-12T16:02:28.284Z,9.40
2023-04-12T16:04:58.867Z,9.40
2023-04-12T16:07:29.355Z,9.40
2023-04-12T16:10:09.787Z,9.50
2023-04-12T16:12:39.298Z,9.50
2023-04-12T16:15:08.253Z,9.50
2023-04-12T16:17:37.432Z,9.50
2023-04-12T16:20:07.441Z,9.50
2023-04-12T16:22:35.542Z,9.50
2023-04-12T16:25:04.495Z,9.50
2023-04-12T16:27:32.931Z,9.50
2023-04-12T16:30:04.260Z,9.60
2023-04-12T16:32:32.700Z,9.50
2023-04-12T16:35:01.020Z,9.50
2023-04-12T16:37:30.078Z,9.50
2023-04-12T16:39:58.132Z,9.50
2023-04-12T16:42:31.778Z,9.50
2023-04-12T16:45:04.755Z,9.60
2023-04-12T16:47:34.253Z,9.60
2023-04-12T16:50:09.913Z,9.50
2023-04-12T16:52:38.400Z,9.60
2023-04-12T16:55:07.261Z,9.50
2023-04-12T16:57:36.383Z,9.60
2023-04-12T17:00:24.328Z,9.60
2023-04-12T17:02:54.001Z,9.60
2023-04-12T17:05:22.938Z,9.60
2023-04-12T17:07:53.453Z,9.60
2023-04-12T17:10:23.401Z,9.60
2023-04-12T17:12:52.869Z,9.60
2023-04-12T17:15:22.990Z,9.60
2023-04-12T17:17:52.578Z,9.60
2023-04-12T17:20:23.333Z,9.60
2023-04-12T17:22:52.154Z,9.60
2023-04-12T17:25:21.500Z,9.60
2023-04-12T17:27:51.666Z,9.60
2023-04-12T17:30:19.715Z,9.60
2023-04-12T17:32:49.679Z,9.60
2023-04-12T17:35:18.463Z,9.60
2023-04-12T17:37:46.905Z,9.60
2023-04-12T17:40:17.070Z,9.50
2023-04-12T17:42:45.390Z,9.60
2023-04-12T17:45:18.116Z,9.60
2023-04-12T17:47:56.246Z,9.60
2023-04-12T17:50:24.920Z,9.60
2023-04-12T17:53:08.651Z,9.60
2023-04-12T17:55:42.490Z,9.60
2023-04-12T17:58:23.997Z,9.60
2023-04-12T18:00:58.212Z,9.60
2023-04-12T18:03:28.027Z,9.60
2023-04-12T18:05:58.884Z,9.50
2023-04-12T18:08:27.359Z,9.50
2023-04-12T18:10:55.423Z,9.50
2023-04-12T18:13:23.482Z,9.50
2023-04-12T18:15:51.565Z,9.50
2023-04-12T18:18:21.130Z,9.60
2023-04-12T18:20:50.857Z,9.50
2023-04-12T18:23:21.400Z,9.60
2023-04-12T18:25:50.802Z,9.50
2023-04-12T18:28:19.260Z,9.50
2023-04-12T18:30:51.173Z,9.50
2023-04-12T18:33:19.103Z,9.50
2023-04-12T18:35:48.495Z,9.50
2023-04-12T18:38:18.709Z,9.50
2023-04-12T18:40:46.725Z,9.60
2023-04-12T18:43:14.930Z,9.60
2023-04-12T18:45:43.081Z,9.50
2023-04-12T18:48:11.334Z,9.50
2023-04-12T18:50:39.826Z,9.50
2023-04-12T18:53:08.463Z,9.50
2023-04-12T18:55:37.777Z,9.50
2023-04-12T18:58:05.980Z,9.50
2023-04-12T19:00:34.281Z,9.50
2023-04-12T19:03:02.410Z,9.60
2023-04-12T19:05:31.045Z,9.50
2023-04-12T19:07:59.012Z,9.50
2023-04-12T19:10:30.447Z,9.50
2023-04-12T19:12:59.753Z,9.50
2023-04-12T19:15:27.980Z,9.50
2023-04-12T19:17:59.272Z,9.50
2023-04-12T19:20:28.682Z,9.60
2023-04-12T19:22:56.956Z,9.50
2023-04-12T19:25:29.645Z,9.50
2023-04-12T19:27:59.770Z,9.50
2023-04-12T19:30:30.698Z,9.50
2023-04-12T19:32:59.712Z,9.50
2023-04-12T19:35:32.654Z,9.50
2023-04-12T19:38:00.740Z,9.50
2023-04-12T19:40:30.537Z,9.50
2023-04-12T19:43:00.643Z,9.50
2023-04-12T19:45:28.853Z,9.50
2023-04-12T19:47:57.025Z,9.50
2023-04-12T19:50:25.072Z,9.50
2023-04-12T19:52:53.047Z,9.50
2023-04-12T19:55:21.497Z,9.50
2023-04-12T19:57:50.005Z,9.50
2023-04-12T20:00:22.763Z,9.50
2023-04-12T20:02:52.004Z,9.50
2023-04-12T20:05:22.508Z,9.40
2023-04-12T20:07:52.676Z,9.40
2023-04-12T20:10:21.261Z,9.40
2023-04-12T20:12:49.427Z,9.50
2023-04-12T20:15:19.421Z,9.40
2023-04-12T20:17:48.472Z,9.40
2023-04-12T20:20:17.254Z,9.40
2023-04-12T20:22:47.253Z,9.40
2023-04-12T20:25:16.481Z,9.40
2023-04-12T20:27:51.479Z,9.40
2023-04-12T20:30:22.675Z,9.40
2023-04-12T20:32:54.250Z,9.30
2023-04-12T20:35:22.811Z,9.30
2023-04-12T20:37:51.822Z,9.30
2023-04-12T20:40:23.261Z,9.30
2023-04-12T20:42:51.421Z,9.30
2023-04-12T20:45:21.740Z,9.30
2023-04-12T20:47:49.737Z,9.30
2023-04-12T20:50:18.761Z,9.20
2023-04-12T20:52:48.565Z,9.20
2023-04-12T20:55:17.501Z,9.20
2023-04-12T20:57:45.432Z,9.20
2023-04-12T21:00:18.135Z,9.20
2023-04-12T21:02:48.965Z,9.20
2023-04-12T21:05:17.650Z,9.10
2023-04-12T21:07:46.759Z,9.10
2023-04-12T21:10:15.194Z,9.10
2023-04-12T21:12:44.902Z,9.10
2023-04-12T21:15:13.893Z,9.10
2023-04-12T21:17:42.833Z,9.10
2023-04-12T21:20:14.344Z,9.10
2023-04-12T21:22:44.117Z,9.00
2023-04-12T21:25:13.577Z,9.00
2023-04-12T21:27:43.619Z,9.00
2023-04-12T21:30:12.535Z,9.00
2023-04-12T21:32:40.954Z,9.00
2023-04-12T21:35:11.284Z,9.00
2023-04-12T21:37:40.929Z,9.00
2023-04-12T21:40:10.907Z,8.90
2023-04-12T21:42:39.887Z,8.90
2023-04-12T21:45:09.659Z,8.90
2023-04-12T21:47:39.778Z,8.90
2023-04-12T21:50:08.898Z,8.90
2023-04-12T21:52:36.944Z,8.80
2023-04-12T21:55:06.722Z,8.90
2023-04-12T21:57:35.980Z,8.90
2023-04-12T22:00:06.403Z,8.80
2023-04-12T22:02:34.434Z,8.80
2023-04-12T22:05:02.375Z,8.80
2023-04-12T22:07:30.224Z,8.80
2023-04-12T22:09:58.949Z,8.80
2023-04-12T22:12:28.506Z,8.70
2023-04-12T22:14:57.703Z,8.80
2023-04-12T22:17:25.653Z,8.70
2023-04-12T22:19:56.468Z,8.70
2023-04-12T22:22:24.431Z,8.70
2023-04-12T22:24:54.019Z,8.70
2023-04-12T22:27:22.131Z,8.70
2023-04-12T22:29:51.377Z,8.70
2023-04-12T22:32:19.608Z,8.70
2023-04-12T22:34:54.810Z,8.70
2023-04-12T22:37:30.015Z,8.60
2023-04-12T22:39:57.905Z,8.60
2023-04-12T22:42:29.796Z,8.60
2023-04-12T22:44:59.757Z,8.60
2023-04-12T22:47:28.371Z,8.60
2023-04-12T22:50:01.030Z,8.60
2023-04-12T22:52:30.386Z,8.60
2023-04-12T22:54:58.512Z,8.50
2023-04-12T22:57:27.400Z,8.60
2023-04-12T22:59:55.565Z,8.50
2023-04-12T23:02:24.970Z,8.50
2023-04-12T23:04:52.912Z,8.50
2023-04-12T23:07:21.887Z,8.50
2023-04-12T23:09:50.742Z,8.40
2023-04-12T23:12:18.633Z,8.40
2023-04-12T23:14:46.485Z,8.40
2023-04-12T23:17:16.761Z,8.40
2023-04-12T23:19:46.198Z,8.40
2023-04-12T23:22:22.354Z,8.40
2023-04-12T23:24:51.023Z,8.40
2023-04-12T23:27:19.516Z,8.30
2023-04-12T23:29:47.933Z,8.30
2023-04-12T23:32:16.191Z,8.30
2023-04-12T23:34:46.401Z,8.30
2023-04-12T23:37:14.993Z,8.30
2023-04-12T23:39:43.127Z,8.30
2023-04-12T23:42:11.599Z,8.20
2023-04-12T23:44:39.444Z,8.20
2023-04-12T23:47:07.633Z,8.20
2023-04-12T23:49:35.847Z,8.20
2023-04-12T23:52:05.297Z,8.20
2023-04-12T23:54:33.161Z,8.20
2023-04-12T23:57:01.438Z,8.10
2023-04-12T23:59:29.276Z,8.10
